createdAt,value
2018-11-28T00:00:56.164Z,102775.86
2018-11-28T00:03:23.684Z,102771.16
2018-11-28T00:05:51.147Z,102772.06
2018-11-28T00:08:18.628Z,102763.80
2018-11-28T00:10:46.191Z,102762.58
2018-11-28T00:13:13.682Z,102761.28
2018-11-28T00:15:41.181Z,102760.42
2018-11-28T00:18:08.690Z,102758.30
2018-11-28T00:20:36.203Z,102762.58
2018-11-28T00:23:03.819Z,102763.08
2018-11-28T00:25:31.366Z,102760.00
2018-11-28T00:27:58.866Z,102763.95
2018-11-28T00:30:26.398Z,102760.97
2018-11-28T00:32:54.006Z,102765.28
2018-11-28T00:35:22.482Z,102758.78
2018-11-28T00:38:20.724Z,102761.87
2018-11-28T00:40:48.186Z,102754.43
2018-11-28T00:43:15.659Z,102750.95
2018-11-28T00:45:43.187Z,102758.30
2018-11-28T00:48:10.683Z,102755.72
2018-11-28T00:50:38.163Z,102753.14
2018-11-28T00:53:06.160Z,102747.49
2018-11-28T00:55:33.773Z,102750.55
2018-11-28T00:58:01.272Z,102747.57
2018-11-28T01:00:28.734Z,102746.67
2018-11-28T01:02:56.251Z,102744.55
2018-11-28T01:05:23.776Z,102749.38
2018-11-28T01:07:52.264Z,102747.14
2018-11-28T01:10:20.786Z,102742.80
2018-11-28T01:12:48.826Z,102738.91
2018-11-28T01:15:17.165Z,102737.16
2018-11-28T01:17:44.745Z,102737.16
2018-11-28T01:20:14.371Z,102728.10
2018-11-28T01:22:41.928Z,102724.23
2018-11-28T01:25:12.265Z,102725.09
2018-11-28T01:27:39.985Z,102729.80
2018-11-28T01:30:10.598Z,102723.65
2018-11-28T01:32:38.120Z,102729.64
2018-11-28T01:35:07.331Z,102734.42
2018-11-28T01:37:34.852Z,102734.59
2018-11-28T01:40:02.939Z,102737.41
2018-11-28T01:42:30.446Z,102725.16
2018-11-28T01:44:57.979Z,102730.25
2018-11-28T01:47:25.472Z,102726.84
2018-11-28T01:49:52.979Z,102725.48
2018-11-28T01:52:20.492Z,102725.80
2018-11-28T01:54:48.006Z,102721.84
2018-11-28T01:57:15.504Z,102721.77
2018-11-28T01:59:43.007Z,102726.39
2018-11-28T02:02:10.657Z,102724.63
2018-11-28T02:04:38.248Z,102727.76
2018-11-28T02:07:06.237Z,102728.73
2018-11-28T02:09:33.852Z,102731.39
2018-11-28T02:12:01.400Z,102725.01
2018-11-28T02:14:28.831Z,102733.70
2018-11-28T02:16:56.305Z,102727.24
2018-11-28T02:19:23.940Z,102722.97
2018-11-28T02:21:51.504Z,102723.36
2018-11-28T02:24:18.994Z,102710.88
2018-11-28T02:26:46.508Z,102726.38
2018-11-28T02:29:14.007Z,102724.50
2018-11-28T02:31:41.494Z,102724.86
2018-11-28T02:34:09.030Z,102720.47
2018-11-28T02:36:36.686Z,102732.03
2018-11-28T02:39:07.865Z,102729.87
2018-11-28T02:41:35.569Z,102732.84
2018-11-28T02:44:03.341Z,102728.97
2018-11-28T02:46:31.336Z,102726.70
2018-11-28T02:48:58.808Z,102731.80
2018-11-28T02:51:26.292Z,102727.84
2018-11-28T02:53:53.884Z,102732.62
2018-11-28T02:56:21.445Z,102724.39
2018-11-28T02:58:49.020Z,102725.27
2018-11-28T03:01:16.497Z,102726.08
2018-11-28T03:03:44.002Z,102725.69
2018-11-28T03:06:11.537Z,102725.61
2018-11-28T03:08:39.059Z,102731.99
2018-11-28T03:11:06.559Z,102734.08
2018-11-28T03:13:34.081Z,102730.20
2018-11-28T03:16:09.944Z,102734.08
2018-11-28T03:18:37.783Z,102733.60
2018-11-28T03:21:05.979Z,102730.55
2018-11-28T03:23:33.510Z,102729.97
2018-11-28T03:26:01.038Z,102725.23
2018-11-28T03:28:28.506Z,102723.03
2018-11-28T03:30:56.016Z,102729.10
2018-11-28T03:33:23.552Z,102721.59
2018-11-28T03:35:51.055Z,102723.27
2018-11-28T03:38:19.428Z,102725.86
2018-11-28T03:40:46.906Z,102724.95
2018-11-28T03:43:14.573Z,102730.47
2018-11-28T03:45:41.997Z,102730.47
2018-11-28T03:48:09.497Z,102724.80
2018-11-28T03:50:36.951Z,102730.87
2018-11-28T03:53:04.980Z,102726.52
2018-11-28T03:55:32.520Z,102727.97
2018-11-28T03:58:00.056Z,102727.97
2018-11-28T04:00:27.585Z,102721.52
2018-11-28T04:02:55.084Z,102718.58
2018-11-28T04:05:22.619Z,102712.05
2018-11-28T04:07:50.090Z,102718.50
2018-11-28T04:10:17.675Z,102713.76
2018-11-28T04:12:45.432Z,102717.20
2018-11-28T04:15:21.811Z,102708.59
2018-11-28T04:17:49.376Z,102708.75
2018-11-28T04:20:18.828Z,102629.34
2018-11-28T04:22:46.455Z,102700.38
2018-11-28T04:25:14.773Z,102703.75
2018-11-28T04:27:42.274Z,102703.75
2018-11-28T04:30:18.281Z,102700.30
2018-11-28T04:32:46.241Z,102702.88
2018-11-28T04:35:14.262Z,102705.86
2018-11-28T04:37:42.281Z,102706.68
2018-11-28T04:40:11.797Z,102700.62
2018-11-28T04:42:39.420Z,102699.64
2018-11-28T04:45:08.872Z,102702.73
2018-11-28T04:47:36.414Z,102713.45
2018-11-28T04:50:04.545Z,102689.31
2018-11-28T04:52:32.043Z,102690.52
2018-11-28T04:54:59.599Z,102687.55
2018-11-28T04:57:27.098Z,102690.60
2018-11-28T04:59:54.598Z,102683.75
2018-11-28T05:02:22.138Z,102683.67
2018-11-28T05:04:49.716Z,102673.27
2018-11-28T05:07:31.503Z,102672.29
2018-11-28T05:09:59.172Z,102673.42
2018-11-28T05:12:26.842Z,102668.92
2018-11-28T05:14:54.385Z,102674.72
2018-11-28T05:17:21.997Z,102666.19
2018-11-28T05:19:49.518Z,102673.86
2018-11-28T05:22:17.010Z,102675.15
2018-11-28T05:24:44.548Z,102669.09
2018-11-28T05:27:12.031Z,102679.49
2018-11-28T05:29:39.531Z,102665.72
2018-11-28T05:32:07.661Z,102669.67
2018-11-28T05:34:35.151Z,102674.17
2018-11-28T05:37:02.805Z,102668.69
2018-11-28T05:39:30.365Z,102670.25
2018-11-28T05:41:57.876Z,102668.96
2018-11-28T05:44:25.382Z,102673.62
2018-11-28T05:46:53.151Z,102677.57
2018-11-28T05:49:20.639Z,102666.46
2018-11-28T05:51:48.149Z,102673.85
2018-11-28T05:54:15.695Z,102671.70
2018-11-28T05:56:43.233Z,102666.93
2018-11-28T05:59:10.782Z,102669.98
2018-11-28T06:01:38.384Z,102673.07
2018-11-28T06:04:05.988Z,102675.57
2018-11-28T06:06:33.600Z,102669.52
2018-11-28T06:09:01.079Z,102666.46
2018-11-28T06:11:28.557Z,102668.14
2018-11-28T06:13:56.024Z,102660.79
2018-11-28T06:16:23.479Z,102654.69
2018-11-28T06:18:50.983Z,102655.62
2018-11-28T06:21:18.505Z,102654.77
2018-11-28T06:23:45.988Z,102650.89
2018-11-28T06:26:13.476Z,102656.84
2018-11-28T06:28:40.925Z,102653.70
2018-11-28T06:31:08.392Z,102652.34
2018-11-28T06:33:36.064Z,102651.28
2018-11-28T06:36:03.614Z,102648.62
2018-11-28T06:38:31.125Z,102644.36
2018-11-28T06:40:58.622Z,102644.36
2018-11-28T06:43:26.090Z,102644.36
2018-11-28T06:45:59.174Z,102643.15
2018-11-28T06:48:26.876Z,102638.88
2018-11-28T06:50:54.421Z,102636.30
2018-11-28T06:53:22.030Z,102641.86
2018-11-28T06:55:49.554Z,102638.80
2018-11-28T06:58:17.019Z,102636.22
2018-11-28T07:00:44.556Z,102636.53
2018-11-28T07:03:12.111Z,102634.66
2018-11-28T07:05:39.636Z,102573.41
2018-11-28T07:08:07.107Z,102628.79
2018-11-28T07:10:34.652Z,102621.70
2018-11-28T07:13:02.165Z,102620.73
2018-11-28T07:15:29.632Z,102610.41
2018-11-28T07:18:07.244Z,102616.47
2018-11-28T07:20:34.824Z,102617.84
2018-11-28T07:23:02.324Z,102614.44
2018-11-28T07:25:29.779Z,102618.70
2018-11-28T07:27:57.340Z,102617.02
2018-11-28T07:30:24.824Z,102618.70
2018-11-28T07:32:54.016Z,102610.57
2018-11-28T07:35:21.598Z,102616.86
2018-11-28T07:37:49.076Z,102609.78
2018-11-28T07:40:18.773Z,102612.13
2018-11-28T07:42:48.439Z,102606.88
2018-11-28T07:45:15.989Z,102613.33
2018-11-28T07:47:43.495Z,102615.17
2018-11-28T07:50:11.235Z,102617.75
2018-11-28T07:52:38.763Z,102611.30
2018-11-28T07:55:08.371Z,102622.52
2018-11-28T07:57:35.814Z,102621.62
2018-11-28T08:00:04.273Z,102615.99
2018-11-28T08:02:31.758Z,102614.36
2018-11-28T08:04:59.294Z,102616.55
2018-11-28T08:07:26.744Z,102609.27
2018-11-28T08:09:54.238Z,102609.27
2018-11-28T08:12:21.781Z,102605.09
2018-11-28T08:14:49.326Z,102608.57
2018-11-28T08:17:16.860Z,102602.20
2018-11-28T08:19:44.334Z,102605.56
2018-11-28T08:22:11.830Z,102607.75
2018-11-28T08:24:39.436Z,102606.77
2018-11-28T08:27:06.947Z,102541.20
2018-11-28T08:29:34.408Z,102615.99
2018-11-28T08:32:02.000Z,102606.88
2018-11-28T08:34:29.543Z,102612.52
2018-11-28T08:36:57.042Z,102601.72
2018-11-28T08:39:24.528Z,102604.70
2018-11-28T08:41:52.032Z,102609.46
2018-11-28T08:44:19.532Z,102609.86
2018-11-28T08:46:47.097Z,102608.56
2018-11-28T08:49:14.594Z,102603.80
2018-11-28T08:51:42.305Z,102596.88
2018-11-28T08:54:09.760Z,102597.77
2018-11-28T08:56:37.215Z,102593.56
2018-11-28T08:59:04.942Z,102594.53
2018-11-28T09:01:32.446Z,102591.06
2018-11-28T09:03:59.938Z,102595.43
2018-11-28T09:06:27.464Z,102592.27
2018-11-28T09:08:55.005Z,102590.59
2018-11-28T09:11:22.481Z,102591.56
2018-11-28T09:13:49.988Z,102598.09
2018-11-28T09:16:17.468Z,102586.95
2018-11-28T09:18:44.911Z,102584.06
2018-11-28T09:21:12.418Z,102584.61
2018-11-28T09:23:39.969Z,102583.40
2018-11-28T09:26:07.448Z,102587.42
2018-11-28T09:28:35.099Z,102583.63
2018-11-28T09:31:02.574Z,102576.44
2018-11-28T09:33:30.023Z,102573.47
2018-11-28T09:35:57.524Z,102571.51
2018-11-28T09:38:25.023Z,102566.46
2018-11-28T09:40:52.561Z,102559.27
2018-11-28T09:43:20.023Z,102558.05
2018-11-28T09:45:47.585Z,102550.46
2018-11-28T09:48:15.064Z,102551.44
2018-11-28T09:50:42.575Z,102554.95
2018-11-28T09:53:10.222Z,102552.95
2018-11-28T09:55:37.670Z,102545.28
2018-11-28T09:58:05.414Z,102542.35
2018-11-28T10:00:32.964Z,102547.27
2018-11-28T10:03:00.794Z,102547.42
2018-11-28T10:05:31.122Z,102540.65
2018-11-28T10:07:58.734Z,102536.50
2018-11-28T10:10:26.302Z,102536.69
2018-11-28T10:12:53.766Z,102530.70
2018-11-28T10:15:22.251Z,102533.42
2018-11-28T10:17:49.837Z,102528.80
2018-11-28T10:20:18.038Z,102526.38
2018-11-28T10:22:45.912Z,102529.09
2018-11-28T10:25:18.158Z,102524.91
2018-11-28T10:27:47.824Z,102525.88
2018-11-28T10:30:20.395Z,102517.45
2018-11-28T10:32:48.408Z,102518.88
2018-11-28T10:35:15.944Z,102509.09
2018-11-28T10:37:43.400Z,102497.61
2018-11-28T10:40:13.306Z,102498.58
2018-11-28T10:42:40.886Z,102495.74
2018-11-28T10:45:09.917Z,102504.47
2018-11-28T10:47:37.444Z,102504.17
2018-11-28T10:50:06.356Z,102497.86
2018-11-28T10:52:33.878Z,102493.23
2018-11-28T10:55:01.599Z,102513.66
2018-11-28T10:57:29.126Z,102518.56
2018-11-28T10:59:56.596Z,102523.41
2018-11-28T11:02:29.652Z,102510.55
2018-11-28T11:05:02.786Z,102514.65
2018-11-28T11:07:35.838Z,102525.92
2018-11-28T11:10:09.534Z,102517.05
2018-11-28T11:12:42.490Z,102523.58
2018-11-28T11:15:10.026Z,102522.42
2018-11-28T11:17:37.559Z,102518.19
2018-11-28T11:20:05.589Z,102519.22
2018-11-28T11:22:33.183Z,102507.69
2018-11-28T11:25:00.707Z,102501.77
2018-11-28T11:27:28.204Z,102497.16
2018-11-28T11:29:55.740Z,102490.91
2018-11-28T11:32:23.324Z,102485.80
2018-11-28T11:34:50.808Z,102494.55
2018-11-28T11:37:18.316Z,102487.76
2018-11-28T11:39:45.815Z,102490.98
2018-11-28T11:42:13.377Z,102492.05
2018-11-28T11:44:40.837Z,102478.02
2018-11-28T11:47:08.433Z,102473.61
2018-11-28T11:49:35.951Z,102468.63
2018-11-28T11:52:03.432Z,102471.05
2018-11-28T11:54:31.349Z,102460.16
2018-11-28T11:56:58.900Z,102464.37
2018-11-28T11:59:26.341Z,102462.50
2018-11-28T12:01:54.835Z,102459.36
2018-11-28T12:04:21.437Z,102454.17
2018-11-28T12:06:49.006Z,102448.01
2018-11-28T12:09:16.497Z,102446.59
2018-11-28T12:11:44.003Z,102441.72
2018-11-28T12:14:11.511Z,102436.93
2018-11-28T12:16:39.046Z,102429.02
2018-11-28T12:19:06.641Z,102427.97
2018-11-28T12:21:34.297Z,102426.05
2018-11-28T12:24:01.759Z,102431.03
2018-11-28T12:26:29.323Z,102422.23
2018-11-28T12:28:56.857Z,102427.98
2018-11-28T12:31:24.411Z,102428.16
2018-11-28T12:33:51.960Z,102422.26
2018-11-28T12:36:19.493Z,102419.31
2018-11-28T12:38:47.043Z,102404.83
2018-11-28T12:41:14.536Z,102408.88
2018-11-28T12:43:42.048Z,102400.73
2018-11-28T12:46:09.603Z,102411.64
2018-11-28T12:48:37.075Z,102406.06
2018-11-28T12:51:05.096Z,102395.30
2018-11-28T12:53:32.606Z,102397.15
2018-11-28T12:56:00.070Z,102401.16
2018-11-28T12:58:27.860Z,102409.45
2018-11-28T13:00:55.393Z,102412.55
2018-11-28T13:03:22.871Z,102424.77
2018-11-28T13:05:50.513Z,102419.64
2018-11-28T13:08:18.015Z,102419.75
2018-11-28T13:10:45.595Z,102424.99
2018-11-28T13:13:13.291Z,102422.02
2018-11-28T13:15:40.835Z,102419.08
2018-11-28T13:18:09.199Z,102417.43
2018-11-28T13:20:37.236Z,102418.34
2018-11-28T13:23:05.131Z,102418.00
2018-11-28T13:25:32.624Z,102417.65
2018-11-28T13:28:00.447Z,102418.59
2018-11-28T13:30:28.087Z,102406.08
2018-11-28T13:32:55.668Z,102405.23
2018-11-28T13:35:25.158Z,102413.08
2018-11-28T13:37:53.871Z,102417.81
2018-11-28T13:40:21.368Z,102416.05
2018-11-28T13:42:49.160Z,102419.95
2018-11-28T13:45:17.747Z,102416.80
2018-11-28T13:47:46.376Z,102413.86
2018-11-28T13:50:14.248Z,102413.41
2018-11-28T13:52:41.743Z,102406.08
2018-11-28T13:57:42.253Z,102408.27
2018-11-28T14:00:09.951Z,102404.38
2018-11-28T14:02:37.753Z,102403.14
2018-11-28T14:05:07.732Z,102406.13
2018-11-28T14:07:35.250Z,102403.14
2018-11-28T14:10:03.080Z,102412.67
2018-11-28T14:12:30.824Z,102415.67
2018-11-28T14:14:58.376Z,102410.43
2018-11-28T14:17:25.860Z,102421.65
2018-11-28T14:19:53.573Z,102407.38
2018-11-28T14:22:21.114Z,102408.22
2018-11-28T14:24:48.650Z,102405.52
2018-11-28T14:27:16.260Z,102408.97
2018-11-28T14:29:43.843Z,102406.75
2018-11-28T14:32:11.361Z,102353.25
2018-11-28T14:34:39.023Z,102408.34
2018-11-28T14:37:06.799Z,102404.02
2018-11-28T14:39:34.337Z,102403.16
2018-11-28T14:42:02.152Z,102399.67
2018-11-28T14:44:29.681Z,102398.72
2018-11-28T14:46:57.239Z,102398.27
2018-11-28T14:49:25.008Z,102393.86
2018-11-28T14:51:52.557Z,102389.02
2018-11-28T14:54:20.027Z,102399.40
2018-11-28T14:56:47.643Z,102408.02
2018-11-28T14:59:15.163Z,102410.13
2018-11-28T15:01:42.646Z,102411.80
2018-11-28T15:04:10.381Z,102409.55
2018-11-28T15:06:48.664Z,102403.07
2018-11-28T15:09:21.895Z,102403.47
2018-11-28T15:11:49.426Z,102393.59
2018-11-28T15:14:16.922Z,102386.67
2018-11-28T15:16:44.728Z,102385.38
2018-11-28T15:19:12.281Z,102381.08
2018-11-28T15:21:39.838Z,102382.32
2018-11-28T15:24:07.572Z,102390.45
2018-11-28T15:26:35.156Z,102399.13
2018-11-28T15:29:02.747Z,102400.37
2018-11-28T15:31:30.488Z,102396.88
2018-11-28T15:33:58.029Z,102393.83
2018-11-28T15:36:25.570Z,102399.06
2018-11-28T15:38:53.316Z,102385.75
2018-11-28T15:41:20.787Z,102382.32
2018-11-28T15:43:48.255Z,102383.16
2018-11-28T15:46:15.890Z,102389.65
2018-11-28T15:48:43.373Z,102384.56
2018-11-28T15:51:10.985Z,102395.00
2018-11-28T15:53:38.794Z,102387.62
2018-11-28T15:56:06.425Z,102379.84
2018-11-28T15:58:33.942Z,102371.48
2018-11-28T16:01:01.698Z,102374.65
2018-11-28T16:03:29.256Z,102366.77
2018-11-28T16:05:56.815Z,102370.66
2018-11-28T16:08:24.478Z,102374.08
2018-11-28T16:10:52.238Z,102371.89
2018-11-28T16:13:19.755Z,102378.33
2018-11-28T16:15:50.549Z,102385.20
2018-11-28T16:18:18.108Z,102386.45
2018-11-28T16:20:45.693Z,102379.56
2018-11-28T16:23:13.493Z,102376.08
2018-11-28T16:25:41.006Z,102368.30
2018-11-28T16:28:08.688Z,102368.79
2018-11-28T16:30:36.358Z,102365.65
2018-11-28T16:33:03.859Z,102366.59
2018-11-28T16:35:31.365Z,102370.48
2018-11-28T16:37:59.142Z,102362.19
2018-11-28T16:40:26.698Z,102362.19
2018-11-28T16:42:54.291Z,102352.22
2018-11-28T16:45:21.974Z,102345.69
2018-11-28T16:47:49.528Z,102344.73
2018-11-28T16:50:17.452Z,102347.77
2018-11-28T16:52:45.314Z,102334.25
2018-11-28T16:55:13.766Z,102344.23
2018-11-28T16:57:42.397Z,102338.14
2018-11-28T17:00:14.123Z,102331.61
2018-11-28T17:02:41.628Z,102326.42
2018-11-28T17:05:13.342Z,102316.45
2018-11-28T17:07:41.385Z,102312.05
2018-11-28T17:10:11.229Z,102313.30
2018-11-28T17:12:38.724Z,102303.71
2018-11-28T17:15:08.966Z,102307.16
2018-11-28T17:17:36.525Z,102308.84
2018-11-28T17:20:06.817Z,102304.95
2018-11-28T17:22:34.443Z,102304.06
2018-11-28T17:25:01.956Z,102298.82
2018-11-28T17:27:29.475Z,102296.23
2018-11-28T17:29:57.299Z,102289.75
2018-11-28T17:32:24.831Z,102289.64
2018-11-28T17:34:52.387Z,102290.64
2018-11-28T17:37:20.148Z,102285.45
2018-11-28T17:39:47.641Z,102297.63
2018-11-28T17:42:15.078Z,102298.03
2018-11-28T17:44:42.871Z,102295.88
2018-11-28T17:47:10.380Z,102308.05
2018-11-28T17:49:37.923Z,102304.22
2018-11-28T17:52:05.748Z,102301.28
2018-11-28T17:54:33.232Z,102301.80
2018-11-28T17:57:00.708Z,102308.37
2018-11-28T17:59:28.458Z,102295.47
2018-11-28T18:01:55.973Z,102302.95
2018-11-28T18:04:23.471Z,102308.64
2018-11-28T18:06:51.263Z,102300.92
2018-11-28T18:09:18.749Z,102298.43
2018-11-28T18:11:46.260Z,102302.08
2018-11-28T18:14:13.956Z,102296.16
2018-11-28T18:16:41.461Z,102298.39
2018-11-28T18:19:08.940Z,102294.20
2018-11-28T18:21:36.651Z,102245.29
2018-11-28T18:24:04.262Z,102295.30
2018-11-28T18:26:32.032Z,102298.86
2018-11-28T18:28:59.828Z,102292.02
2018-11-28T18:31:27.290Z,102299.06
2018-11-28T18:33:54.791Z,102292.27
2018-11-28T18:36:22.676Z,102301.05
2018-11-28T18:38:50.128Z,102300.30
2018-11-28T18:41:17.634Z,102298.22
2018-11-28T18:43:45.398Z,102294.92
2018-11-28T18:46:12.962Z,102288.13
2018-11-28T18:48:40.465Z,102296.42
2018-11-28T18:51:08.200Z,102289.18
2018-11-28T18:53:35.705Z,102291.02
2018-11-28T18:56:03.222Z,102280.23
2018-11-28T18:58:30.944Z,102278.59
2018-11-28T19:00:58.452Z,102274.74
2018-11-28T19:03:26.036Z,102266.50
2018-11-28T19:05:53.686Z,102271.34
2018-11-28T19:08:21.180Z,102267.45
2018-11-28T19:10:48.782Z,102271.44
2018-11-28T19:13:16.326Z,102284.02
2018-11-28T19:15:43.812Z,102280.17
2018-11-28T19:18:11.297Z,102279.38
2018-11-28T19:20:39.076Z,102272.48
2018-11-28T19:23:06.657Z,102264.64
2018-11-28T19:25:34.138Z,102266.03
2018-11-28T19:28:01.762Z,102257.83
2018-11-28T19:30:36.105Z,102264.78
2018-11-28T19:33:04.021Z,102264.83
2018-11-28T19:35:31.535Z,102264.11
2018-11-28T19:37:59.379Z,102264.11
2018-11-28T19:40:59.532Z,102248.52
2018-11-28T19:43:27.050Z,102256.02
2018-11-28T19:45:54.614Z,102255.20
2018-11-28T19:48:22.397Z,102251.44
2018-11-28T19:50:49.880Z,102248.04
2018-11-28T19:53:17.388Z,102235.99
2018-11-28T19:55:45.048Z,102228.28
2018-11-28T19:58:12.508Z,102230.97
2018-11-28T20:00:43.336Z,102230.62
2018-11-28T20:03:11.014Z,102233.38
2018-11-28T20:05:38.482Z,102239.13
2018-11-28T20:08:06.979Z,102237.91
2018-11-28T20:10:34.650Z,102234.09
2018-11-28T20:13:02.192Z,102219.44
2018-11-28T20:15:30.438Z,102222.58
2018-11-28T20:17:58.267Z,102228.31
2018-11-28T20:20:25.817Z,102217.63
2018-11-28T20:22:53.329Z,102229.05
2018-11-28T20:25:22.213Z,102222.63
2018-11-28T20:27:59.229Z,102214.91
2018-11-28T20:30:44.920Z,102213.25
2018-11-28T20:33:13.645Z,102205.17
2018-11-28T20:35:42.093Z,102214.31
2018-11-28T20:38:13.070Z,102174.82
2018-11-28T20:40:40.565Z,102213.66
2018-11-28T20:43:08.105Z,102210.65
2018-11-28T20:45:35.737Z,102215.52
2018-11-28T20:48:03.297Z,102212.52
2018-11-28T20:50:32.419Z,102203.78
2018-11-28T20:53:02.832Z,102207.02
2018-11-28T20:55:30.277Z,102203.56
2018-11-28T20:57:57.780Z,102208.41
2018-11-28T21:00:25.625Z,102202.34
2018-11-28T21:02:53.152Z,102196.69
2018-11-28T21:05:20.673Z,102199.78
2018-11-28T21:07:48.339Z,102193.32
2018-11-28T21:10:21.712Z,102188.16
2018-11-28T21:12:49.455Z,102181.28
2018-11-28T21:15:17.025Z,102178.64
2018-11-28T21:17:44.995Z,102177.45
2018-11-28T21:20:15.483Z,102172.29
2018-11-28T21:22:43.711Z,102165.81
2018-11-28T21:25:11.802Z,102163.70
2018-11-28T21:27:39.517Z,102161.14
2018-11-28T21:30:11.147Z,102164.70
2018-11-28T21:32:38.747Z,102156.48
2018-11-28T21:35:10.427Z,102157.86
2018-11-28T21:37:38.047Z,102162.28
2018-11-28T21:40:05.749Z,102165.37
2018-11-28T21:42:33.388Z,102168.94
2018-11-28T21:45:00.891Z,102173.91
2018-11-28T21:47:28.336Z,102166.59
2018-11-28T21:49:55.990Z,102162.75
2018-11-28T21:52:23.412Z,102176.25
2018-11-28T21:54:50.947Z,102115.74
2018-11-28T21:57:18.614Z,102170.70
2018-11-28T21:59:46.095Z,102178.59
2018-11-28T22:02:13.577Z,102176.88
2018-11-28T22:04:47.798Z,102173.45
2018-11-28T22:07:15.230Z,102166.15
2018-11-28T22:09:42.727Z,102173.52
2018-11-28T22:12:10.344Z,102170.09
2018-11-28T22:14:37.793Z,102167.93
2018-11-28T22:17:05.286Z,102174.03
2018-11-28T22:19:32.848Z,102172.28
2018-11-28T22:22:00.301Z,102168.41
2018-11-28T22:24:27.741Z,102162.79
2018-11-28T22:26:55.458Z,102168.03
2018-11-28T22:29:22.949Z,102161.59
2018-11-28T22:31:50.485Z,102169.44
2018-11-28T22:34:18.252Z,102161.25
2018-11-28T22:36:45.711Z,102163.89
2018-11-28T22:39:13.179Z,102167.86
2018-11-28T22:41:40.746Z,102169.64
2018-11-28T22:44:08.283Z,102168.41
2018-11-28T22:46:35.777Z,102164.08
2018-11-28T22:49:03.424Z,102154.14
2018-11-28T22:51:30.851Z,102161.99
2018-11-28T22:53:58.358Z,102161.20
2018-11-28T22:56:26.018Z,102155.98
2018-11-28T22:58:53.539Z,102156.44
2018-11-28T23:01:26.744Z,102096.19
2018-11-28T23:03:54.201Z,102152.94
2018-11-28T23:06:21.771Z,102152.11
2018-11-28T23:08:49.316Z,102146.45
2018-11-28T23:11:16.810Z,102141.21
2018-11-28T23:13:44.345Z,102130.76
2018-11-28T23:16:12.122Z,102136.42
2018-11-28T23:18:39.617Z,102135.56
2018-11-28T23:21:07.170Z,102131.23
2018-11-28T23:23:34.879Z,102131.27
2018-11-28T23:26:02.349Z,102123.89
2018-11-28T23:28:29.916Z,102122.63
2018-11-28T23:30:57.705Z,102119.19
2018-11-28T23:33:25.183Z,102113.19
2018-11-28T23:35:52.707Z,102117.57
2018-11-28T23:38:20.596Z,102123.73
2018-11-28T23:40:48.067Z,102123.77
2018-11-28T23:43:15.569Z,102117.31
2018-11-28T23:45:43.356Z,102116.48
2018-11-28T23:48:10.899Z,102115.23
2018-11-28T23:50:38.357Z,102111.39
2018-11-28T23:53:06.108Z,102115.80
2018-11-28T23:55:33.574Z,102119.30
2018-11-28T23:58:01.008Z,102119.80
